createdAt,value
2022-08-19T00:01:59.611Z,5.00
2022-08-19T00:04:33.406Z,5.13
2022-08-19T00:07:02.212Z,5.67
2022-08-19T00:09:30.952Z,5.73
2022-08-19T00:12:00.440Z,6.00
2022-08-19T00:14:32.631Z,5.20
2022-08-19T00:17:02.259Z,5.17
2022-08-19T00:19:31.284Z,5.33
2022-08-19T00:21:59.539Z,5.07
2022-08-19T00:24:29.562Z,5.33
2022-08-19T00:27:05.090Z,5.53
2022-08-19T00:29:52.451Z,5.40
2022-08-19T00:32:21.740Z,5.67
2022-08-19T00:34:50.005Z,5.73
2022-08-19T00:37:18.226Z,5.13
2022-08-19T00:39:46.424Z,5.30
2022-08-19T00:42:17.688Z,5.47
2022-08-19T00:44:46.346Z,4.43
2022-08-19T00:47:16.559Z,5.77
2022-08-19T00:49:51.615Z,5.87
2022-08-19T00:52:25.948Z,4.60
2022-08-19T00:54:54.863Z,4.43
2022-08-19T00:57:29.162Z,5.00
2022-08-19T01:00:01.781Z,4.97
2022-08-19T01:02:34.425Z,5.53
2022-08-19T01:05:07.699Z,4.73
2022-08-19T01:07:38.142Z,4.83
2022-08-19T01:10:11.132Z,5.60
2022-08-19T01:12:41.233Z,4.70
2022-08-19T01:15:13.819Z,5.27
2022-08-19T01:17:45.037Z,5.03
2022-08-19T01:20:18.022Z,5.13
2022-08-19T01:22:50.024Z,4.43
2022-08-19T01:25:23.261Z,5.50
2022-08-19T01:27:54.729Z,4.40
2022-08-19T01:30:27.880Z,4.70
2022-08-19T01:32:57.707Z,4.70
2022-08-19T01:35:27.740Z,5.53
2022-08-19T01:38:00.461Z,4.77
2022-08-19T01:40:34.143Z,5.03
2022-08-19T01:43:03.898Z,5.10
2022-08-19T01:45:35.297Z,4.90
2022-08-19T01:48:04.408Z,4.60
2022-08-19T01:50:34.762Z,6.00
2022-08-19T01:53:10.061Z,5.50
2022-08-19T01:55:42.436Z,4.67
2022-08-19T01:58:17.488Z,5.50
2022-08-19T02:00:47.108Z,4.80
2022-08-19T02:03:15.456Z,4.80
2022-08-19T02:05:44.765Z,4.57
2022-08-19T02:08:14.875Z,5.57
2022-08-19T02:10:45.225Z,5.07
2022-08-19T02:13:15.379Z,4.90
2022-08-19T02:15:44.130Z,5.10
2022-08-19T02:18:12.524Z,4.87
2022-08-19T02:20:42.727Z,4.80
2022-08-19T02:23:16.207Z,4.50
2022-08-19T02:25:46.946Z,5.47
2022-08-19T02:28:18.575Z,4.70
2022-08-19T02:30:49.330Z,5.33
2022-08-19T02:33:18.635Z,4.63
2022-08-19T02:35:48.230Z,4.70
2022-08-19T02:38:29.060Z,4.30
2022-08-19T02:41:00.783Z,5.00
2022-08-19T02:43:33.819Z,4.67
2022-08-19T02:46:03.631Z,4.30
2022-08-19T02:48:33.839Z,4.40
2022-08-19T02:51:02.677Z,4.20
2022-08-19T02:53:32.292Z,5.10
2022-08-19T02:56:00.577Z,4.97
2022-08-19T02:58:28.995Z,4.70
2022-08-19T03:00:58.754Z,4.57
2022-08-19T03:03:27.568Z,4.30
2022-08-19T03:06:07.177Z,4.77
2022-08-19T03:08:37.412Z,4.27
2022-08-19T03:11:06.361Z,4.10
2022-08-19T03:13:34.900Z,4.50
2022-08-19T03:16:07.840Z,4.70
2022-08-19T03:18:36.205Z,4.00
2022-08-19T03:21:05.106Z,5.50
2022-08-19T03:23:33.734Z,4.87
2022-08-19T03:26:16.474Z,4.43
2022-08-19T03:28:51.006Z,4.90
2022-08-19T03:31:41.759Z,4.03
2022-08-19T03:34:13.464Z,4.83
2022-08-19T03:36:42.742Z,4.40
2022-08-19T03:39:13.123Z,4.03
2022-08-19T03:41:48.492Z,4.83
2022-08-19T03:44:20.562Z,4.80
2022-08-19T03:46:51.360Z,4.57
2022-08-19T03:49:20.745Z,4.67
2022-08-19T03:51:51.184Z,5.20
2022-08-19T03:54:23.839Z,4.40
2022-08-19T03:56:57.323Z,4.67
2022-08-19T03:59:29.034Z,4.43
2022-08-19T04:02:00.015Z,4.33
2022-08-19T04:04:29.656Z,4.33
2022-08-19T04:06:58.846Z,4.20
2022-08-19T04:09:27.918Z,4.30
2022-08-19T04:11:59.268Z,4.00
2022-08-19T04:14:31.022Z,5.00
2022-08-19T04:17:00.157Z,4.20
2022-08-19T04:19:31.077Z,4.23
2022-08-19T04:21:59.880Z,4.40
2022-08-19T04:24:28.394Z,4.10
2022-08-19T04:26:57.997Z,4.67
2022-08-19T04:29:28.135Z,4.80
2022-08-19T04:31:59.135Z,4.77
2022-08-19T04:34:30.981Z,4.47
2022-08-19T04:37:00.542Z,4.60
2022-08-19T04:39:46.282Z,4.50
2022-08-19T04:42:34.095Z,4.33
2022-08-19T04:45:03.532Z,3.93
2022-08-19T04:47:49.201Z,4.13
2022-08-19T04:50:23.543Z,4.20
2022-08-19T04:52:54.252Z,4.23
2022-08-19T04:55:22.663Z,6.10
2022-08-19T04:57:52.381Z,4.90
2022-08-19T05:00:20.766Z,4.80
2022-08-19T05:02:50.225Z,4.83
2022-08-19T05:05:18.795Z,5.10
2022-08-19T05:07:47.206Z,4.43
2022-08-19T05:10:15.433Z,4.57
2022-08-19T05:12:43.772Z,5.27
2022-08-19T05:15:13.644Z,4.97
2022-08-19T05:18:03.171Z,4.87
2022-08-19T05:20:49.263Z,4.93
2022-08-19T05:23:20.591Z,4.07
2022-08-19T05:25:52.507Z,5.53
2022-08-19T05:28:21.622Z,4.90
2022-08-19T05:30:51.895Z,5.10
2022-08-19T05:33:20.839Z,5.23
2022-08-19T05:35:50.229Z,4.97
2022-08-19T05:38:19.541Z,5.40
2022-08-19T05:40:47.995Z,5.13
2022-08-19T05:43:17.437Z,5.60
2022-08-19T05:45:46.343Z,4.60
2022-08-19T05:48:18.411Z,4.63
2022-08-19T05:50:47.443Z,4.80
2022-08-19T05:53:17.298Z,4.33
2022-08-19T05:55:45.675Z,5.10
2022-08-19T05:58:14.210Z,4.33
2022-08-19T06:00:45.196Z,5.33
2022-08-19T06:03:15.030Z,5.10
2022-08-19T06:05:51.974Z,5.50
2022-08-19T06:08:34.604Z,11.80
2022-08-19T06:11:23.560Z,6.80
2022-08-19T06:13:59.438Z,12.97
2022-08-19T06:16:28.658Z,9.97
2022-08-19T06:19:02.001Z,15.80
2022-08-19T06:21:31.943Z,16.07
2022-08-19T06:24:00.828Z,15.67
2022-08-19T06:26:29.262Z,16.93
2022-08-19T06:28:57.510Z,17.57
2022-08-19T06:31:32.202Z,15.63
2022-08-19T06:34:02.964Z,14.30
2022-08-19T06:36:37.125Z,13.73
2022-08-19T06:39:08.385Z,16.40
2022-08-19T06:41:43.597Z,16.57
2022-08-19T06:44:16.630Z,16.00
2022-08-19T06:46:45.508Z,18.80
2022-08-19T06:49:23.794Z,16.30
2022-08-19T06:51:52.996Z,19.07
2022-08-19T06:54:21.611Z,17.20
2022-08-19T06:56:50.193Z,16.50
2022-08-19T06:59:22.282Z,16.13
2022-08-19T07:01:52.989Z,16.80
2022-08-19T07:04:26.079Z,14.17
2022-08-19T07:07:01.327Z,15.73
2022-08-19T07:09:52.176Z,17.50
2022-08-19T07:12:32.271Z,17.77
2022-08-19T07:15:01.570Z,18.50
2022-08-19T07:17:30.021Z,17.10
2022-08-19T07:20:05.373Z,14.97
2022-08-19T07:22:37.700Z,14.37
2022-08-19T07:25:09.090Z,14.60
2022-08-19T07:27:39.726Z,14.27
2022-08-19T07:30:12.130Z,11.90
2022-08-19T07:32:40.777Z,11.60
2022-08-19T07:35:11.816Z,11.50
2022-08-19T07:37:45.077Z,11.90
2022-08-19T07:40:13.984Z,16.47
2022-08-19T07:42:43.181Z,13.83
2022-08-19T07:45:12.078Z,14.93
2022-08-19T07:47:47.748Z,13.67
2022-08-19T07:50:21.829Z,13.87
2022-08-19T07:52:50.943Z,15.80
2022-08-19T07:55:41.039Z,15.07
2022-08-19T07:58:13.574Z,14.33
2022-08-19T08:00:42.843Z,14.40
2022-08-19T08:03:11.326Z,18.17
2022-08-19T08:05:58.510Z,17.40
2022-08-19T08:08:53.071Z,16.83
2022-08-19T08:11:24.021Z,18.00
2022-08-19T08:14:00.406Z,17.30
2022-08-19T08:16:30.845Z,18.43
2022-08-19T08:19:00.204Z,20.33
2022-08-19T08:21:31.002Z,18.63
2022-08-19T08:26:32.329Z,19.57
2022-08-19T08:29:02.738Z,20.10
2022-08-19T08:31:41.692Z,17.73
2022-08-19T08:34:10.747Z,15.80
2022-08-19T08:36:43.508Z,14.17
2022-08-19T08:39:11.928Z,16.50
2022-08-19T08:41:53.610Z,17.87
2022-08-19T08:44:25.859Z,15.67
2022-08-19T08:46:57.955Z,15.50
2022-08-19T08:49:35.994Z,15.70
2022-08-19T08:52:11.207Z,20.27
2022-08-19T08:54:54.856Z,20.90
2022-08-19T08:57:33.750Z,18.53
2022-08-19T09:00:15.661Z,18.70
2022-08-19T09:02:44.065Z,16.30
2022-08-19T09:05:16.273Z,15.70
2022-08-19T09:07:54.149Z,19.80
2022-08-19T09:10:31.309Z,19.70
2022-08-19T09:13:12.029Z,22.43
2022-08-19T09:15:47.567Z,18.83
2022-08-19T09:18:19.258Z,19.40
2022-08-19T09:20:49.144Z,19.80
2022-08-19T09:23:19.309Z,20.10
2022-08-19T09:25:55.609Z,17.23
2022-08-19T09:28:27.223Z,17.50
2022-08-19T09:30:55.598Z,17.93
2022-08-19T09:33:23.734Z,16.53
2022-08-19T09:35:53.160Z,15.33
2022-08-19T09:38:23.498Z,15.80
2022-08-19T09:40:51.671Z,14.73
2022-08-19T09:43:33.215Z,16.47
2022-08-19T09:46:10.153Z,17.37
2022-08-19T09:48:39.210Z,16.50
2022-08-19T09:51:11.833Z,18.20
2022-08-19T09:53:41.588Z,16.47
2022-08-19T09:56:09.965Z,16.87
2022-08-19T09:58:39.124Z,13.87
2022-08-19T10:01:09.254Z,13.33
2022-08-19T10:03:38.841Z,11.30
2022-08-19T10:06:15.228Z,11.40
2022-08-19T10:08:50.358Z,9.93
2022-08-19T10:11:27.783Z,10.70
2022-08-19T10:14:03.841Z,10.53
2022-08-19T10:16:32.534Z,10.50
2022-08-19T10:19:07.581Z,9.17
2022-08-19T10:21:36.233Z,8.97
2022-08-19T10:24:09.503Z,9.93
2022-08-19T10:26:42.853Z,9.63
2022-08-19T10:29:10.911Z,9.37
2022-08-19T10:32:00.713Z,9.93
2022-08-19T10:34:28.517Z,8.50
2022-08-19T10:37:00.947Z,8.83
2022-08-19T10:39:43.393Z,8.03
2022-08-19T10:42:13.961Z,9.50
2022-08-19T10:44:42.925Z,10.20
2022-08-19T10:47:17.891Z,9.47
2022-08-19T10:50:12.188Z,11.50
2022-08-19T10:52:48.974Z,11.13
2022-08-19T10:55:41.518Z,8.83
2022-08-19T10:58:14.524Z,8.87
2022-08-19T11:00:43.465Z,10.80
2022-08-19T11:03:11.836Z,11.07
2022-08-19T11:05:40.873Z,12.67
2022-08-19T11:08:18.149Z,8.90
2022-08-19T11:10:58.914Z,10.17
2022-08-19T11:13:27.350Z,10.43
2022-08-19T11:16:03.972Z,9.40
2022-08-19T11:18:38.005Z,7.80
2022-08-19T11:21:13.225Z,8.77
2022-08-19T11:23:42.114Z,8.63
2022-08-19T11:26:12.326Z,8.77
2022-08-19T11:28:40.614Z,8.30
2022-08-19T11:31:13.674Z,8.40
2022-08-19T11:33:42.171Z,8.87
2022-08-19T11:36:17.064Z,8.10
2022-08-19T11:38:45.461Z,9.20
2022-08-19T11:41:15.056Z,8.00
2022-08-19T11:43:43.992Z,7.10
2022-08-19T11:46:16.307Z,7.53
2022-08-19T11:48:44.629Z,6.80
2022-08-19T11:51:22.559Z,7.17
2022-08-19T11:53:51.540Z,7.80
2022-08-19T11:56:22.741Z,8.03
2022-08-19T11:58:51.208Z,8.10
2022-08-19T12:01:21.831Z,6.70
2022-08-19T12:03:52.684Z,8.43
2022-08-19T12:06:26.533Z,8.07
2022-08-19T12:08:54.737Z,7.20
2022-08-19T12:11:24.695Z,6.80
2022-08-19T12:13:54.508Z,6.90
2022-08-19T12:16:27.613Z,7.27
2022-08-19T12:18:56.627Z,6.90
2022-08-19T12:21:29.501Z,7.47
2022-08-19T12:24:00.047Z,6.60
2022-08-19T12:26:32.247Z,7.30
2022-08-19T12:29:01.437Z,7.63
2022-08-19T12:31:30.012Z,7.10
2022-08-19T12:33:58.150Z,6.60
2022-08-19T12:36:27.045Z,7.30
2022-08-19T12:38:55.308Z,6.17
2022-08-19T12:41:23.868Z,6.40
2022-08-19T12:43:53.654Z,7.03
2022-08-19T12:46:22.336Z,7.47
2022-08-19T12:48:55.379Z,7.03
2022-08-19T12:51:24.304Z,7.30
2022-08-19T12:53:52.417Z,7.50
2022-08-19T12:56:23.184Z,7.10
2022-08-19T12:58:53.325Z,6.57
2022-08-19T13:01:23.089Z,6.80
2022-08-19T13:03:53.432Z,6.17
2022-08-19T13:06:22.320Z,5.97
2022-08-19T13:08:50.671Z,6.33
2022-08-19T13:11:21.762Z,6.60
2022-08-19T13:13:51.880Z,6.60
2022-08-19T13:16:22.859Z,6.00
2022-08-19T13:18:52.285Z,6.20
2022-08-19T13:21:22.613Z,6.97
2022-08-19T13:23:52.057Z,6.63
2022-08-19T13:26:20.681Z,6.50
2022-08-19T13:29:06.660Z,5.90
2022-08-19T13:31:55.250Z,6.63
2022-08-19T13:34:32.905Z,5.93
2022-08-19T13:37:03.822Z,6.23
2022-08-19T13:39:33.275Z,6.40
2022-08-19T13:42:02.302Z,6.40
2022-08-19T13:44:31.079Z,6.87
2022-08-19T13:47:07.695Z,6.23
2022-08-19T13:49:37.803Z,6.07
2022-08-19T13:52:07.141Z,7.70
2022-08-19T13:54:35.416Z,9.90
2022-08-19T13:57:03.551Z,11.80
2022-08-19T13:59:31.684Z,13.10
2022-08-19T14:02:00.696Z,11.90
2022-08-19T14:04:30.264Z,11.20
2022-08-19T14:06:58.305Z,11.30
2022-08-19T14:09:26.681Z,9.70
2022-08-19T14:11:54.755Z,10.00
2022-08-19T14:14:22.987Z,9.43
2022-08-19T14:16:52.748Z,8.40
2022-08-19T14:19:21.147Z,8.10
2022-08-19T14:21:50.819Z,8.97
2022-08-19T14:24:18.888Z,8.60
2022-08-19T14:26:47.063Z,8.03
2022-08-19T14:29:15.278Z,8.20
2022-08-19T14:31:44.898Z,7.90
2022-08-19T14:34:13.565Z,8.70
2022-08-19T14:36:42.713Z,8.47
2022-08-19T14:39:12.516Z,7.80
2022-08-19T14:41:42.961Z,8.17
2022-08-19T14:44:13.336Z,7.50
2022-08-19T14:46:42.043Z,7.50
2022-08-19T14:49:18.854Z,6.23
2022-08-19T14:51:47.780Z,6.57
2022-08-19T14:54:17.260Z,6.20
2022-08-19T14:56:45.449Z,7.13
2022-08-19T14:59:13.606Z,6.57
2022-08-19T15:01:41.789Z,6.43
2022-08-19T15:04:10.177Z,6.33
2022-08-19T15:06:38.777Z,6.47
2022-08-19T15:09:07.301Z,6.53
2022-08-19T15:11:37.901Z,6.10
2022-08-19T15:14:06.200Z,6.27
2022-08-19T15:16:34.877Z,7.00
2022-08-19T15:19:03.144Z,5.93
2022-08-19T15:21:31.934Z,5.87
2022-08-19T15:24:02.574Z,5.87
2022-08-19T15:26:33.100Z,5.77
2022-08-19T15:29:03.962Z,5.27
2022-08-19T15:31:35.328Z,5.87
2022-08-19T15:34:06.701Z,6.80
2022-08-19T15:36:35.117Z,6.03
2022-08-19T15:39:05.373Z,5.80
2022-08-19T15:41:36.976Z,5.53
2022-08-19T15:44:10.140Z,5.70
2022-08-19T15:46:40.589Z,5.70
2022-08-19T15:49:10.791Z,5.00
2022-08-19T15:51:40.614Z,5.13
2022-08-19T15:54:11.803Z,5.27
2022-08-19T15:56:58.634Z,4.93
2022-08-19T15:59:47.201Z,5.37
2022-08-19T16:02:34.269Z,5.20
2022-08-19T16:05:19.990Z,5.40
2022-08-19T16:07:48.410Z,5.03
2022-08-19T16:10:27.033Z,5.53
2022-08-19T16:12:57.701Z,5.00
2022-08-19T16:15:28.818Z,5.20
2022-08-19T16:17:58.128Z,4.53
2022-08-19T16:20:28.276Z,4.80
2022-08-19T16:22:58.371Z,4.90
2022-08-19T16:25:28.964Z,5.40
2022-08-19T16:28:07.320Z,5.10
2022-08-19T16:30:40.606Z,5.00
2022-08-19T16:33:10.626Z,4.57
2022-08-19T16:35:39.066Z,4.10
2022-08-19T16:38:07.864Z,3.83
2022-08-19T16:40:36.769Z,3.70
2022-08-19T16:43:05.363Z,3.30
2022-08-19T16:45:33.465Z,3.13
2022-08-19T16:48:03.822Z,2.70
2022-08-19T16:50:48.707Z,2.90
2022-08-19T16:53:21.099Z,2.60
2022-08-19T16:55:53.219Z,3.20
2022-08-19T16:58:28.196Z,3.10
2022-08-19T17:01:00.747Z,3.57
2022-08-19T17:03:36.506Z,3.40
2022-08-19T17:06:18.383Z,4.00
2022-08-19T17:08:51.103Z,3.63
2022-08-19T17:11:21.041Z,4.20
2022-08-19T17:13:51.837Z,3.27
2022-08-19T17:16:24.801Z,3.60
2022-08-19T17:18:55.829Z,3.83
2022-08-19T17:21:28.981Z,4.67
2022-08-19T17:23:57.930Z,3.90
2022-08-19T17:26:27.532Z,3.67
2022-08-19T17:28:57.961Z,3.57
2022-08-19T17:31:29.926Z,3.20
2022-08-19T17:34:00.401Z,4.40
2022-08-19T17:36:31.706Z,3.37
2022-08-19T17:39:02.796Z,3.07
2022-08-19T17:41:33.723Z,3.73
2022-08-19T17:44:03.214Z,3.20
2022-08-19T17:46:31.720Z,2.90
2022-08-19T17:49:01.656Z,2.80
2022-08-19T17:51:43.806Z,2.80
2022-08-19T17:54:16.151Z,3.87
2022-08-19T17:56:45.216Z,3.17
2022-08-19T17:59:14.511Z,2.63
2022-08-19T18:01:53.259Z,2.97
2022-08-19T18:04:25.347Z,2.07
2022-08-19T18:06:55.612Z,3.20
2022-08-19T18:09:27.444Z,3.10
2022-08-19T18:11:57.690Z,2.73
2022-08-19T18:14:33.756Z,2.60
2022-08-19T18:17:09.029Z,3.40
2022-08-19T18:19:41.473Z,2.70
2022-08-19T18:22:13.997Z,3.37
2022-08-19T18:24:46.047Z,2.97
2022-08-19T18:27:15.020Z,3.50
2022-08-19T18:29:43.379Z,3.13
2022-08-19T18:32:14.561Z,2.87
2022-08-19T18:34:45.781Z,3.50
2022-08-19T18:37:14.079Z,3.03
2022-08-19T18:39:59.701Z,3.20
2022-08-19T18:42:45.612Z,2.77
2022-08-19T18:45:31.597Z,2.83
2022-08-19T18:48:26.744Z,3.07
2022-08-19T18:50:59.013Z,3.23
2022-08-19T18:53:29.740Z,2.73
2022-08-19T18:55:59.392Z,2.60
2022-08-19T18:58:32.226Z,3.00
2022-08-19T19:01:03.265Z,2.50
2022-08-19T19:03:31.414Z,3.30
2022-08-19T19:06:01.365Z,3.17
2022-08-19T19:08:29.497Z,3.40
2022-08-19T19:11:00.853Z,2.30
2022-08-19T19:13:29.714Z,2.90
2022-08-19T19:15:57.880Z,3.50
2022-08-19T19:18:25.962Z,2.87
2022-08-19T19:20:54.195Z,2.70
2022-08-19T19:23:23.860Z,2.27
2022-08-19T19:25:53.236Z,3.40
2022-08-19T19:28:27.808Z,2.90
2022-08-19T19:30:58.572Z,2.20
2022-08-19T19:33:27.196Z,2.27
2022-08-19T19:35:55.346Z,2.17
2022-08-19T19:38:24.900Z,1.67
2022-08-19T19:40:52.961Z,2.10
2022-08-19T19:43:21.295Z,1.73
2022-08-19T19:45:49.912Z,1.90
2022-08-19T19:48:18.078Z,1.77
2022-08-19T19:50:53.920Z,2.00
2022-08-19T19:53:27.520Z,1.60
2022-08-19T19:55:58.645Z,1.57
2022-08-19T19:58:28.894Z,1.87
2022-08-19T20:00:59.051Z,1.97
2022-08-19T20:03:27.981Z,2.43
2022-08-19T20:05:59.460Z,1.60
2022-08-19T20:08:43.873Z,1.33
2022-08-19T20:11:12.941Z,1.63
2022-08-19T20:13:41.245Z,2.40
2022-08-19T20:16:09.673Z,1.70
2022-08-19T20:18:38.762Z,1.90
2022-08-19T20:21:07.439Z,1.80
2022-08-19T20:23:36.922Z,1.60
2022-08-19T20:26:06.432Z,1.70
2022-08-19T20:28:37.886Z,2.00
2022-08-19T20:31:11.581Z,1.70
2022-08-19T20:33:39.762Z,1.50
2022-08-19T20:36:08.230Z,1.93
2022-08-19T20:38:39.180Z,1.60
2022-08-19T20:41:07.806Z,1.60
2022-08-19T20:43:36.215Z,1.60
2022-08-19T20:46:04.820Z,1.50
2022-08-19T20:48:33.131Z,1.90
2022-08-19T20:51:01.608Z,2.07
2022-08-19T20:53:29.833Z,1.73
2022-08-19T20:56:00.054Z,1.47
2022-08-19T20:58:28.778Z,1.50
2022-08-19T21:01:00.601Z,1.50
2022-08-19T21:03:32.405Z,1.43
2022-08-19T21:06:00.741Z,1.60
2022-08-19T21:08:29.041Z,1.90
2022-08-19T21:10:59.697Z,1.77
2022-08-19T21:13:28.028Z,1.50
2022-08-19T21:15:56.461Z,1.63
2022-08-19T21:18:26.777Z,1.60
2022-08-19T21:20:55.925Z,1.37
2022-08-19T21:23:27.397Z,1.70
2022-08-19T21:25:59.437Z,1.83
2022-08-19T21:28:29.990Z,1.87
2022-08-19T21:31:07.031Z,1.77
2022-08-19T21:33:35.542Z,1.90
2022-08-19T21:36:05.199Z,1.90
2022-08-19T21:38:33.807Z,1.40
2022-08-19T21:41:06.678Z,1.90
2022-08-19T21:43:35.201Z,1.50
2022-08-19T21:46:03.761Z,1.67
2022-08-19T21:48:32.299Z,1.80
2022-08-19T21:51:00.588Z,1.63
2022-08-19T21:53:31.414Z,1.40
2022-08-19T21:56:04.145Z,1.73
2022-08-19T21:58:33.474Z,1.80
2022-08-19T22:01:05.965Z,1.50
2022-08-19T22:03:34.749Z,1.30
2022-08-19T22:06:03.064Z,1.27
2022-08-19T22:08:31.754Z,1.90
2022-08-19T22:11:00.168Z,1.60
2022-08-19T22:13:39.929Z,1.63
2022-08-19T22:16:10.463Z,1.23
2022-08-19T22:18:38.661Z,1.63
2022-08-19T22:21:11.278Z,1.57
2022-08-19T22:23:41.582Z,1.10
2022-08-19T22:26:10.421Z,1.40
2022-08-19T22:28:40.261Z,1.47
2022-08-19T22:31:09.952Z,1.10
2022-08-19T22:33:39.172Z,1.47
2022-08-19T22:36:08.900Z,1.40
2022-08-19T22:38:38.259Z,1.97
2022-08-19T22:41:07.960Z,2.00
2022-08-19T22:43:37.406Z,1.50
2022-08-19T22:46:16.970Z,1.53
2022-08-19T22:48:47.730Z,2.00
2022-08-19T22:51:36.684Z,2.00
2022-08-19T22:54:05.402Z,1.80
2022-08-19T22:56:34.726Z,1.70
2022-08-19T22:59:03.532Z,1.70
2022-08-19T23:01:33.394Z,2.10
2022-08-19T23:04:03.730Z,2.07
2022-08-19T23:06:33.758Z,2.33
2022-08-19T23:09:04.585Z,1.73
2022-08-19T23:11:41.712Z,2.17
2022-08-19T23:14:12.461Z,2.10
2022-08-19T23:16:42.562Z,1.93
2022-08-19T23:19:11.537Z,1.50
2022-08-19T23:21:40.293Z,2.13
2022-08-19T23:24:09.171Z,1.97
2022-08-19T23:26:37.424Z,2.03
2022-08-19T23:29:24.367Z,1.97
2022-08-19T23:31:54.092Z,1.97
2022-08-19T23:34:22.778Z,1.63
2022-08-19T23:36:51.385Z,2.53
2022-08-19T23:39:20.040Z,2.27
2022-08-19T23:41:48.251Z,1.77
2022-08-19T23:44:17.167Z,2.77
2022-08-19T23:46:55.332Z,2.00
2022-08-19T23:49:26.919Z,2.00
2022-08-19T23:51:56.479Z,2.20
2022-08-19T23:54:34.198Z,2.93
2022-08-19T23:57:13.303Z,2.00
2022-08-19T23:59:45.023Z,1.83
